Laredo International, TX

7:45 AM CDT on July 29, 2014 (GMT -0500)
Cotulla-La Salle County (KCOT) Elev 476 ft | 28.46 °N, 99.22 °W | Change Station
Active Advisory: Special Statement

Current weather conditions updated 52 minutes ago

Clear
Clear
75 °F
Feels Like 75 °F
N
6
Wind Variable Wind from East

Today is forecast to be Warmer than yesterday.

Today
High -- | Low -- °F
--% Chance of Precip.
Yesterday
High -- | Low -- °F
Precip. -- in
6:59 AM 8:28 PM
Waxing Crescent, 6% visible
Pressure 30.04 in
Visibility 9.0 miles
Clouds Clear
Dew Point 70 °F
Humidity 84%
Rainfall 0.00 in
Snow Depth Not available.
UV 0 out of 12
Pollen 7.40 out of 12
Ozone Good
PM2.5 Moderate
Flu Activity Not available.
METAR KCOT 291153Z AUTO 10005KT 9SM CLR 24/21 A3006 RMK AO2 SLP171 T02390211 10289 20239 53007 $

More Conditions Fewer Conditions

Pressure 30.04 in
Visibility 9.0 miles
Clouds Clear
Dew Point 70 °F
Humidity 84%
Rainfall 0.00 in
Snow Depth Not available.
UV 0 out of 12
Pollen 7.40 out of 12
Ozone Good
PM2.5 Moderate
Flu Activity Not available.
METAR KCOT 291153Z AUTO 10005KT 9SM CLR 24/21 A3006 RMK AO2 SLP171 T02390211 10289 20239 53007 $

More Conditions Fewer Conditions

10-Day Weather Forecast

Almanac

Astronomy

Jul. 29, 2014 Rise Set
Actual Time 6:59 AM CDT 8:28 PM CDT
Civil Twilight 6:34 AM CDT 8:53 PM CDT
Nautical Twilight 6:03 AM CDT 9:24 PM CDT
Astronomical Twilight 5:32 AM CDT 9:55 PM CDT
Moon 9:19 AM CDT 10:02 PM CDT
Length of Visible Light 14h 19m
Length of Day
13h 29m
Tomorrow will be 1m 10s shorter.
Waxing Crescent, 6% of the Moon is Illuminated
Today
Waxing Crescent
Aug 3
First Quarter
Aug 10
Full
Aug 17
Last Quarter
Aug 25
New

Today's Extremes

State Highs State Lows

Community

WunderPhotos

Upload Photos

1,738,705 photos uploaded!

Nearby

Air Quality

  Air Quality AQ Index Pollutant
Yesterday Moderate
PM2.5
Yesterday Good
OZONE
Current Moderate
PM2.5
Current Good
OZONE
Tuesday Good
PM10
Tuesday Good
OZONE
Wednesday Good
PM10
Wednesday Good
OZONE
Thursday Good
PM10
Thursday Good
OZONE

Snow Depth

Station Depth Elevation
No new snow has been reported.

Earthquake Activity

City Distance Mag. Time & Date
No recent earthquake activity has been reported nearby.
Minimum magnitude displayed is 2.5.

Coastal Water Temperatures

Place Temperature
No Stations Reporting

Nearby Weather Stations

Station Location Temp. Heat Index Dew Point Humidity Wind Precip. Elev Updated Type
Del Mar C, Laredo, TX 78.1 °F 81 °F 73 °F 84% ESE  at  5.6 mph 0.00 in / hr 489 ft 7:44 AM CDT Rapid Fire
Werner Ent. Laredo, Laredo, TX 73.8 °F 72 °F 70 °F 88% ENE  at  5.0 mph 0.00 in / hr 694 ft 7:34 AM CDT Normal

Show More Stations Show Fewer Stations